createdAt,value
2019-03-19T00:02:08.796Z,6.47
2019-03-19T00:04:40.709Z,6.40
2019-03-19T00:07:12.539Z,5.63
2019-03-19T00:09:44.404Z,6.10
2019-03-19T00:12:16.237Z,5.80
2019-03-19T00:14:48.962Z,6.30
2019-03-19T00:17:20.880Z,5.77
2019-03-19T00:19:52.697Z,6.60
2019-03-19T00:22:25.744Z,6.57
2019-03-19T00:24:57.882Z,6.03
2019-03-19T00:27:30.327Z,6.13
2019-03-19T00:30:03.323Z,6.03
2019-03-19T00:32:35.714Z,5.70
2019-03-19T00:35:07.739Z,6.37
2019-03-19T00:37:40.142Z,6.07
2019-03-19T00:40:12.540Z,5.90
2019-03-19T00:42:44.322Z,5.93
2019-03-19T00:45:17.043Z,5.93
2019-03-19T00:47:48.931Z,6.23
2019-03-19T00:50:20.759Z,6.33
2019-03-19T00:52:52.650Z,6.60
2019-03-19T00:55:27.524Z,6.63
2019-03-19T00:57:59.316Z,5.80
2019-03-19T01:00:31.711Z,6.20
2019-03-19T01:03:03.488Z,6.37
2019-03-19T01:05:36.048Z,6.43
2019-03-19T01:08:07.888Z,6.70
2019-03-19T01:10:39.751Z,6.67
2019-03-19T01:13:13.091Z,6.13
2019-03-19T01:15:44.988Z,6.53
2019-03-19T01:18:17.428Z,6.20
2019-03-19T01:20:51.387Z,6.90
2019-03-19T01:23:23.252Z,6.27
2019-03-19T01:25:55.889Z,6.33
2019-03-19T01:28:27.865Z,6.53
2019-03-19T01:30:59.729Z,6.87
2019-03-19T01:33:31.884Z,7.57
2019-03-19T01:36:03.727Z,7.60
2019-03-19T01:38:36.003Z,7.70
2019-03-19T01:41:07.874Z,7.17
2019-03-19T01:43:39.794Z,7.30
2019-03-19T01:46:15.913Z,7.83
2019-03-19T01:48:47.800Z,7.47
2019-03-19T01:51:20.641Z,7.43
2019-03-19T01:53:53.750Z,7.23
2019-03-19T01:56:25.633Z,7.77
2019-03-19T01:58:57.467Z,7.33
2019-03-19T02:01:29.869Z,8.17
2019-03-19T02:04:01.780Z,8.03
2019-03-19T02:06:33.639Z,7.23
2019-03-19T02:09:07.380Z,6.63
2019-03-19T02:11:39.329Z,7.50
2019-03-19T02:14:12.140Z,7.83
2019-03-19T02:16:44.064Z,8.30
2019-03-19T02:19:17.427Z,7.30
2019-03-19T02:21:49.347Z,7.50
2019-03-19T02:24:21.176Z,6.53
2019-03-19T02:26:53.423Z,7.23
2019-03-19T02:29:25.824Z,7.47
2019-03-19T02:31:57.722Z,7.67
2019-03-19T02:34:29.573Z,7.20
2019-03-19T02:37:01.472Z,7.27
2019-03-19T02:39:33.350Z,8.20
2019-03-19T02:42:05.230Z,8.27
2019-03-19T02:44:37.097Z,8.53
2019-03-19T02:47:08.908Z,6.97
2019-03-19T02:49:40.671Z,7.10
2019-03-19T02:52:12.548Z,7.63
2019-03-19T02:54:44.932Z,7.23
2019-03-19T02:57:16.821Z,6.83
2019-03-19T02:59:48.671Z,7.10
2019-03-19T03:02:21.571Z,7.70
2019-03-19T03:04:54.017Z,7.77
2019-03-19T03:07:25.933Z,7.67
2019-03-19T03:09:57.754Z,6.60
2019-03-19T03:12:29.615Z,7.30
2019-03-19T03:15:01.455Z,6.73
2019-03-19T03:17:33.880Z,6.90
2019-03-19T03:20:06.676Z,6.27
2019-03-19T03:22:38.569Z,7.07
2019-03-19T03:25:10.600Z,6.67
2019-03-19T03:27:42.447Z,7.10
2019-03-19T03:30:14.568Z,7.73
2019-03-19T03:32:46.882Z,7.93
2019-03-19T03:35:19.580Z,7.93
2019-03-19T03:37:51.912Z,7.70
2019-03-19T03:40:23.917Z,7.50
2019-03-19T03:42:55.880Z,7.60
2019-03-19T03:45:27.708Z,7.60
2019-03-19T03:47:59.606Z,7.70
2019-03-19T03:50:33.489Z,7.53
2019-03-19T03:53:05.367Z,7.90
2019-03-19T03:55:37.502Z,9.17
2019-03-19T03:58:09.871Z,9.20
2019-03-19T04:00:41.821Z,9.30
2019-03-19T04:03:13.715Z,9.97
2019-03-19T04:05:45.552Z,10.27
2019-03-19T04:08:18.775Z,10.43
2019-03-19T04:10:50.727Z,10.67
2019-03-19T04:13:22.892Z,10.23
2019-03-19T04:15:54.756Z,9.63
2019-03-19T04:18:28.562Z,9.30
2019-03-19T04:21:00.454Z,10.13
2019-03-19T04:23:33.734Z,10.00
2019-03-19T04:26:06.135Z,10.77
2019-03-19T04:28:38.076Z,10.37
2019-03-19T04:31:09.960Z,9.80
2019-03-19T04:33:41.937Z,9.67
2019-03-19T04:36:13.810Z,9.73
2019-03-19T04:38:45.990Z,10.03
2019-03-19T04:41:19.703Z,9.63
2019-03-19T04:43:51.742Z,10.63
2019-03-19T04:46:25.295Z,11.20
2019-03-19T04:48:58.263Z,10.53
2019-03-19T04:51:30.569Z,9.70
2019-03-19T04:54:04.677Z,10.57
2019-03-19T04:56:38.664Z,10.70
2019-03-19T04:59:10.835Z,12.03
2019-03-19T05:01:43.908Z,11.33
2019-03-19T05:04:16.880Z,10.67
2019-03-19T05:06:49.495Z,11.40
2019-03-19T05:09:21.593Z,11.40
2019-03-19T05:11:53.715Z,12.30
2019-03-19T05:14:26.180Z,11.53
2019-03-19T05:16:58.435Z,11.80
2019-03-19T05:19:31.657Z,12.27
2019-03-19T05:22:05.483Z,11.93
2019-03-19T05:24:39.375Z,11.63
2019-03-19T05:27:11.277Z,11.83
2019-03-19T05:29:43.620Z,11.30
2019-03-19T05:32:15.719Z,12.50
2019-03-19T05:34:48.443Z,12.17
2019-03-19T05:37:21.974Z,12.13
2019-03-19T05:39:53.838Z,12.30
2019-03-19T05:42:26.176Z,13.20
2019-03-19T05:44:58.276Z,12.90
2019-03-19T05:47:37.306Z,12.43
2019-03-19T05:50:05.092Z,12.43
2019-03-19T05:52:37.149Z,11.60
2019-03-19T05:55:10.805Z,10.33
2019-03-19T05:57:49.604Z,10.53
2019-03-19T06:00:19.905Z,10.93
2019-03-19T06:02:54.430Z,12.50
2019-03-19T06:05:26.464Z,11.57
2019-03-19T06:07:59.717Z,11.67
2019-03-19T06:10:31.858Z,10.80
2019-03-19T06:13:05.748Z,10.73
2019-03-19T06:15:38.055Z,10.83
2019-03-19T06:18:10.645Z,11.20
2019-03-19T06:20:56.664Z,10.90
2019-03-19T06:23:28.746Z,11.77
2019-03-19T06:26:07.275Z,11.87
2019-03-19T06:28:39.219Z,10.97
2019-03-19T06:31:15.263Z,12.17
2019-03-19T06:33:48.215Z,11.77
2019-03-19T06:36:20.398Z,11.67
2019-03-19T06:38:52.513Z,13.73
2019-03-19T06:41:24.511Z,13.90
2019-03-19T06:43:58.146Z,11.93
2019-03-19T06:46:30.122Z,11.30
2019-03-19T06:49:03.954Z,12.40
2019-03-19T06:51:36.599Z,11.50
2019-03-19T06:54:09.024Z,10.87
2019-03-19T06:56:41.093Z,11.37
2019-03-19T06:59:14.348Z,11.30
2019-03-19T07:01:46.274Z,10.73
2019-03-19T07:04:19.528Z,11.73
2019-03-19T07:06:52.148Z,10.77
2019-03-19T07:09:24.125Z,9.57
2019-03-19T07:11:57.692Z,10.20
2019-03-19T07:14:31.187Z,10.30
2019-03-19T07:17:04.552Z,10.27
2019-03-19T07:19:38.415Z,9.17
2019-03-19T07:22:10.410Z,8.73
2019-03-19T07:24:42.871Z,8.87
2019-03-19T07:27:15.263Z,8.53
2019-03-19T07:29:47.371Z,9.23
2019-03-19T07:32:21.016Z,8.80
2019-03-19T07:34:52.979Z,9.60
2019-03-19T07:37:24.991Z,9.50
2019-03-19T07:39:56.868Z,9.13
2019-03-19T07:42:30.515Z,9.70
2019-03-19T07:45:03.905Z,9.67
2019-03-19T07:47:37.780Z,9.17
2019-03-19T07:50:12.797Z,10.00
2019-03-19T07:52:44.736Z,9.97
2019-03-19T07:55:18.060Z,8.83
2019-03-19T07:57:50.461Z,9.20
2019-03-19T08:00:22.538Z,11.03
2019-03-19T08:02:56.340Z,8.50
2019-03-19T08:05:32.990Z,8.83
2019-03-19T08:08:02.403Z,8.90
2019-03-19T08:10:34.884Z,9.03
2019-03-19T08:13:07.484Z,9.30
2019-03-19T08:15:39.825Z,9.80
2019-03-19T08:18:12.508Z,9.60
2019-03-19T08:20:44.516Z,9.53
2019-03-19T08:23:17.463Z,9.97
2019-03-19T08:25:49.568Z,9.07
2019-03-19T08:28:21.800Z,9.77
2019-03-19T08:30:55.706Z,10.07
2019-03-19T08:33:31.011Z,9.20
2019-03-19T08:36:09.314Z,9.00
2019-03-19T08:38:38.036Z,8.73
2019-03-19T08:41:10.070Z,7.50
2019-03-19T08:43:42.710Z,7.60
2019-03-19T08:46:15.220Z,7.70
2019-03-19T08:48:47.151Z,6.17
2019-03-19T08:51:19.085Z,6.27
2019-03-19T08:53:51.088Z,7.00
2019-03-19T08:56:23.664Z,6.30
2019-03-19T08:59:05.614Z,6.43
2019-03-19T09:01:31.298Z,5.93
2019-03-19T09:04:04.929Z,5.53
2019-03-19T09:06:38.206Z,5.67
2019-03-19T09:09:11.379Z,5.17
2019-03-19T09:11:45.793Z,4.00
2019-03-19T09:14:18.866Z,4.13
2019-03-19T09:16:51.357Z,4.77
2019-03-19T09:19:23.313Z,4.80
2019-03-19T09:21:56.546Z,5.33
2019-03-19T09:24:29.552Z,5.70
2019-03-19T09:27:01.492Z,5.60
2019-03-19T09:29:35.865Z,5.87
2019-03-19T09:32:07.904Z,5.47
2019-03-19T09:34:40.984Z,5.40
2019-03-19T09:37:13.020Z,5.23
2019-03-19T09:39:46.992Z,6.60
2019-03-19T09:42:20.835Z,5.90
2019-03-19T09:44:58.356Z,5.30
2019-03-19T09:47:26.668Z,4.77
2019-03-19T09:49:58.915Z,5.30
2019-03-19T09:52:32.884Z,5.37
2019-03-19T09:55:06.852Z,5.70
2019-03-19T09:57:40.667Z,2.67
2019-03-19T10:00:15.843Z,2.70
2019-03-19T10:02:48.764Z,2.17
2019-03-19T10:05:22.363Z,2.93
2019-03-19T10:07:55.706Z,3.67
2019-03-19T10:10:29.847Z,4.10
2019-03-19T10:13:03.656Z,3.13
2019-03-19T10:15:35.628Z,2.60
2019-03-19T10:18:08.080Z,2.00
2019-03-19T10:20:41.156Z,1.70
2019-03-19T10:23:13.458Z,1.40
2019-03-19T10:25:47.831Z,1.40
2019-03-19T10:28:19.958Z,1.70
2019-03-19T10:30:52.642Z,2.00
2019-03-19T10:33:25.143Z,1.90
2019-03-19T10:35:57.630Z,1.93
2019-03-19T10:38:29.825Z,1.83
2019-03-19T10:41:02.828Z,2.27
2019-03-19T10:43:34.971Z,1.70
2019-03-19T10:46:07.570Z,1.90
2019-03-19T10:48:39.708Z,1.90
2019-03-19T10:51:13.605Z,2.07
2019-03-19T10:53:47.267Z,1.70
2019-03-19T10:56:20.487Z,2.10
2019-03-19T10:58:52.340Z,1.77
2019-03-19T11:01:24.385Z,2.13
2019-03-19T11:03:58.119Z,1.83
2019-03-19T11:06:31.642Z,1.93
2019-03-19T11:09:05.225Z,1.97
2019-03-19T11:11:37.238Z,2.17
2019-03-19T11:14:09.474Z,2.10
2019-03-19T11:16:41.400Z,1.93
2019-03-19T11:19:13.312Z,1.80
2019-03-19T11:21:46.647Z,1.70
2019-03-19T11:24:19.586Z,3.30
2019-03-19T11:26:52.027Z,2.07
2019-03-19T11:29:24.755Z,1.70
2019-03-19T11:31:57.855Z,1.90
2019-03-19T11:34:30.148Z,1.80
2019-03-19T11:37:02.208Z,1.93
2019-03-19T11:39:34.401Z,1.70
2019-03-19T11:42:06.867Z,1.83
2019-03-19T11:44:42.791Z,1.50
2019-03-19T11:47:14.105Z,1.70
2019-03-19T11:49:46.815Z,1.70
2019-03-19T11:52:21.050Z,1.90
2019-03-19T11:54:54.496Z,1.73
2019-03-19T11:57:28.140Z,1.90
2019-03-19T12:00:10.799Z,1.70
2019-03-19T12:02:35.596Z,1.67
2019-03-19T12:05:08.451Z,1.60
2019-03-19T12:07:40.893Z,1.97
2019-03-19T12:10:14.335Z,2.00
2019-03-19T12:12:47.435Z,1.83
2019-03-19T12:15:19.775Z,1.50
2019-03-19T12:17:52.199Z,1.97
2019-03-19T12:20:24.509Z,1.57
2019-03-19T12:22:58.033Z,1.73
2019-03-19T12:25:32.697Z,1.87
2019-03-19T12:28:05.742Z,2.10
2019-03-19T12:30:37.819Z,1.67
2019-03-19T12:33:10.647Z,1.50
2019-03-19T12:35:43.039Z,1.80
2019-03-19T12:38:15.500Z,1.40
2019-03-19T12:40:48.709Z,1.77
2019-03-19T12:43:21.207Z,1.70
2019-03-19T12:45:54.347Z,1.43
2019-03-19T12:48:28.265Z,1.70
2019-03-19T12:51:01.552Z,1.60
2019-03-19T12:53:34.932Z,1.60
2019-03-19T12:56:08.288Z,1.50
2019-03-19T12:58:41.464Z,1.33
2019-03-19T13:01:15.422Z,1.60
2019-03-19T13:03:48.664Z,1.57
2019-03-19T13:06:20.792Z,1.30
2019-03-19T13:08:53.352Z,1.70
2019-03-19T13:11:26.230Z,1.40
2019-03-19T13:13:59.432Z,1.30
2019-03-19T13:16:32.204Z,1.40
2019-03-19T13:19:06.075Z,1.30
2019-03-19T13:21:39.714Z,1.37
2019-03-19T13:24:12.315Z,1.30
2019-03-19T13:26:44.636Z,1.53
2019-03-19T13:29:17.382Z,1.40
2019-03-19T13:31:50.674Z,1.20
2019-03-19T13:34:22.937Z,1.50
2019-03-19T13:36:55.230Z,1.20
2019-03-19T13:39:27.352Z,1.20
2019-03-19T13:41:59.996Z,1.13
2019-03-19T13:44:33.383Z,0.90
2019-03-19T13:47:07.611Z,1.27
2019-03-19T13:49:43.294Z,1.50
2019-03-19T13:52:16.863Z,1.30
2019-03-19T13:54:49.236Z,1.10
2019-03-19T13:57:21.917Z,1.67
2019-03-19T13:59:55.649Z,1.33
2019-03-19T14:02:27.994Z,1.47
2019-03-19T14:05:00.334Z,1.20
2019-03-19T14:07:33.615Z,1.67
2019-03-19T14:10:06.124Z,1.30
2019-03-19T14:12:38.014Z,1.40
2019-03-19T14:15:13.598Z,1.10
2019-03-19T14:17:46.706Z,1.50
2019-03-19T14:20:21.311Z,1.37
2019-03-19T14:22:54.576Z,1.50
2019-03-19T14:25:27.036Z,1.40
2019-03-19T14:27:59.552Z,1.33
2019-03-19T14:30:33.149Z,1.37
2019-03-19T14:33:05.740Z,1.10
2019-03-19T14:35:38.404Z,1.33
2019-03-19T14:38:10.987Z,1.50
2019-03-19T14:40:43.229Z,1.27
2019-03-19T14:43:15.902Z,4.03
2019-03-19T14:45:47.979Z,1.70
2019-03-19T14:48:20.093Z,1.30
2019-03-19T14:50:52.668Z,1.23
2019-03-19T14:53:25.366Z,1.43
2019-03-19T14:55:59.084Z,1.20
2019-03-19T14:58:31.644Z,1.30
2019-03-19T15:01:05.015Z,1.40
2019-03-19T15:03:36.955Z,1.23
2019-03-19T15:06:10.580Z,1.33
2019-03-19T15:08:42.464Z,1.30
2019-03-19T15:11:14.650Z,1.40
2019-03-19T15:13:47.149Z,1.30
2019-03-19T15:16:20.546Z,1.50
2019-03-19T15:18:53.993Z,1.50
2019-03-19T15:21:27.517Z,1.90
2019-03-19T15:23:59.854Z,1.47
2019-03-19T15:26:31.906Z,1.50
2019-03-19T15:29:06.661Z,1.40
2019-03-19T15:31:39.688Z,1.77
2019-03-19T15:34:12.284Z,1.67
2019-03-19T15:36:45.165Z,1.70
2019-03-19T15:39:17.862Z,1.50
2019-03-19T15:41:50.879Z,1.80
2019-03-19T15:44:24.003Z,1.40
2019-03-19T15:46:57.371Z,1.93
2019-03-19T15:49:38.219Z,1.60
2019-03-19T15:52:09.018Z,1.43
2019-03-19T15:54:41.114Z,1.70
2019-03-19T15:57:15.629Z,1.50
2019-03-19T15:59:48.393Z,1.70
2019-03-19T16:02:20.514Z,1.60
2019-03-19T16:04:53.877Z,1.80
2019-03-19T16:07:28.018Z,1.80
2019-03-19T16:10:00.326Z,1.57
2019-03-19T16:12:33.580Z,1.70
2019-03-19T16:15:08.013Z,1.33
2019-03-19T16:17:40.561Z,1.40
2019-03-19T16:20:15.438Z,1.60
2019-03-19T16:22:47.496Z,1.57
2019-03-19T16:25:20.979Z,1.90
2019-03-19T16:27:53.036Z,1.50
2019-03-19T16:30:25.640Z,1.80
2019-03-19T16:32:58.370Z,1.37
2019-03-19T16:35:30.495Z,1.70
2019-03-19T16:38:03.740Z,1.43
2019-03-19T16:40:35.275Z,1.40
2019-03-19T16:43:07.580Z,1.57
2019-03-19T16:45:39.581Z,1.70
2019-03-19T16:48:11.979Z,1.70
2019-03-19T16:50:47.737Z,2.00
2019-03-19T16:53:21.233Z,1.60
2019-03-19T16:55:54.250Z,1.70
2019-03-19T16:58:26.904Z,1.70
2019-03-19T17:00:59.821Z,1.77
2019-03-19T17:03:32.383Z,1.80
2019-03-19T17:06:04.837Z,1.73
2019-03-19T17:08:37.132Z,1.90
2019-03-19T17:11:09.427Z,1.70
2019-03-19T17:13:46.819Z,1.80
2019-03-19T17:16:18.735Z,2.00
2019-03-19T17:18:51.025Z,1.77
2019-03-19T17:21:22.922Z,1.70
2019-03-19T17:23:55.491Z,1.70
2019-03-19T17:26:27.873Z,1.80
2019-03-19T17:29:00.210Z,1.60
2019-03-19T17:31:32.541Z,1.60
2019-03-19T17:34:04.503Z,2.00
2019-03-19T17:36:37.909Z,1.90
2019-03-19T17:39:10.803Z,2.00
2019-03-19T17:41:43.418Z,1.90
2019-03-19T17:44:15.791Z,1.70
2019-03-19T17:46:47.657Z,2.07
2019-03-19T17:49:19.554Z,2.00
2019-03-19T17:51:51.845Z,1.97
2019-03-19T17:54:24.191Z,1.80
2019-03-19T17:56:58.043Z,1.80
2019-03-19T17:59:30.473Z,1.90
2019-03-19T18:02:03.559Z,2.00
2019-03-19T18:04:36.329Z,2.37
2019-03-19T18:07:08.706Z,2.53
2019-03-19T18:09:41.164Z,3.50
2019-03-19T18:12:13.596Z,2.87
2019-03-19T18:14:45.487Z,4.10
2019-03-19T18:17:18.503Z,3.33
2019-03-19T18:19:50.403Z,2.97
2019-03-19T18:22:22.279Z,3.83
2019-03-19T18:24:55.102Z,2.90
2019-03-19T18:27:27.938Z,3.03
2019-03-19T18:30:00.425Z,3.10
2019-03-19T18:32:35.367Z,3.00
2019-03-19T18:35:24.441Z,2.87
2019-03-19T18:37:56.755Z,3.57
2019-03-19T18:40:28.654Z,3.80
2019-03-19T18:43:00.546Z,3.50
2019-03-19T18:45:32.821Z,3.37
2019-03-19T18:48:05.040Z,3.23
2019-03-19T18:50:37.346Z,3.57
2019-03-19T18:53:11.190Z,4.40
2019-03-19T18:55:43.479Z,5.10
2019-03-19T18:58:16.442Z,5.47
2019-03-19T19:00:49.361Z,6.07
2019-03-19T19:03:21.842Z,6.17
2019-03-19T19:05:53.735Z,6.43
2019-03-19T19:08:26.004Z,5.77
2019-03-19T19:10:58.373Z,5.57
2019-03-19T19:13:30.192Z,6.13
2019-03-19T19:16:02.647Z,5.93
2019-03-19T19:18:34.583Z,5.67
2019-03-19T19:21:06.937Z,5.43
2019-03-19T19:23:40.836Z,5.00
2019-03-19T19:26:13.167Z,4.90
2019-03-19T19:28:44.997Z,4.60
2019-03-19T19:31:17.252Z,4.07
2019-03-19T19:33:50.543Z,4.10
2019-03-19T19:36:22.875Z,4.03
2019-03-19T19:38:55.860Z,4.63
2019-03-19T19:41:27.759Z,5.33
2019-03-19T19:43:59.983Z,5.40
2019-03-19T19:46:33.373Z,6.37
2019-03-19T19:49:06.352Z,4.93
2019-03-19T19:51:42.050Z,5.17
2019-03-19T19:54:13.932Z,5.60
2019-03-19T19:56:45.817Z,5.17
2019-03-19T19:59:18.292Z,5.27
2019-03-19T20:01:50.179Z,6.20
2019-03-19T20:04:22.441Z,6.70
2019-03-19T20:06:55.325Z,5.60
2019-03-19T20:09:28.571Z,5.90
2019-03-19T20:12:03.885Z,5.90
2019-03-19T20:14:36.231Z,5.70
2019-03-19T20:17:08.160Z,6.00
2019-03-19T20:19:39.992Z,6.97
2019-03-19T20:22:12.377Z,7.03
2019-03-19T20:24:46.899Z,6.53
2019-03-19T20:27:18.827Z,6.70
2019-03-19T20:29:51.526Z,7.90
2019-03-19T20:32:24.410Z,6.87
2019-03-19T20:34:56.368Z,6.80
2019-03-19T20:37:28.810Z,7.13
2019-03-19T20:40:01.789Z,7.30
2019-03-19T20:42:33.982Z,7.17
2019-03-19T20:45:07.068Z,6.83
2019-03-19T20:47:39.531Z,6.93
2019-03-19T20:50:17.336Z,7.50
2019-03-19T20:52:49.207Z,7.33
2019-03-19T20:55:21.063Z,7.63
2019-03-19T20:57:53.120Z,6.30
2019-03-19T21:00:26.202Z,6.30
2019-03-19T21:02:59.050Z,6.07
2019-03-19T21:05:31.924Z,5.43
2019-03-19T21:08:04.401Z,6.50
2019-03-19T21:10:36.325Z,5.67
2019-03-19T21:13:08.218Z,5.97
2019-03-19T21:15:40.159Z,5.23
2019-03-19T21:18:13.291Z,5.87
2019-03-19T21:20:45.748Z,5.40
2019-03-19T21:23:18.092Z,5.23
2019-03-19T21:25:53.498Z,6.60
2019-03-19T21:28:25.889Z,5.50
2019-03-19T21:30:58.157Z,5.60
2019-03-19T21:33:30.515Z,7.30
2019-03-19T21:36:02.416Z,7.57
2019-03-19T21:38:34.826Z,7.90
2019-03-19T21:41:06.688Z,10.30
2019-03-19T21:43:38.612Z,7.97
2019-03-19T21:46:11.015Z,6.33
2019-03-19T21:48:43.450Z,8.07
2019-03-19T21:51:15.818Z,7.97
2019-03-19T21:53:47.667Z,7.87
2019-03-19T21:56:19.575Z,7.97
2019-03-19T21:58:51.491Z,8.50
2019-03-19T22:01:23.385Z,7.70
2019-03-19T22:04:03.016Z,7.93
2019-03-19T22:06:28.835Z,8.47
2019-03-19T22:09:01.157Z,7.80
2019-03-19T22:11:34.571Z,8.20
2019-03-19T22:14:06.876Z,7.43
2019-03-19T22:16:40.203Z,7.50
2019-03-19T22:19:12.640Z,7.10
2019-03-19T22:21:45.591Z,6.80
2019-03-19T22:24:18.817Z,7.30
2019-03-19T22:26:51.100Z,6.67
2019-03-19T22:29:23.487Z,7.57
2019-03-19T22:31:56.234Z,7.50
2019-03-19T22:34:28.120Z,6.93
2019-03-19T22:37:01.429Z,6.80
2019-03-19T22:39:34.317Z,7.23
2019-03-19T22:42:07.325Z,6.93
2019-03-19T22:44:39.797Z,7.40
2019-03-19T22:47:12.754Z,7.23
2019-03-19T22:49:45.961Z,6.97
2019-03-19T22:52:18.885Z,7.20
2019-03-19T22:54:51.309Z,7.67
2019-03-19T22:57:23.241Z,7.70
2019-03-19T22:59:55.205Z,7.67
2019-03-19T23:02:27.837Z,7.47
2019-03-19T23:04:59.791Z,8.40
2019-03-19T23:07:32.907Z,7.40
2019-03-19T23:10:05.998Z,7.57
2019-03-19T23:12:39.842Z,7.13
2019-03-19T23:15:11.868Z,7.80
2019-03-19T23:17:44.225Z,6.53
2019-03-19T23:20:17.078Z,6.47
2019-03-19T23:22:49.544Z,6.30
2019-03-19T23:25:23.169Z,6.90
2019-03-19T23:27:55.129Z,6.87
2019-03-19T23:30:28.419Z,6.53
2019-03-19T23:33:00.494Z,6.60
2019-03-19T23:35:32.502Z,6.90
2019-03-19T23:38:04.797Z,5.87
2019-03-19T23:40:37.753Z,9.03
2019-03-19T23:43:09.876Z,8.20
2019-03-19T23:45:42.357Z,6.37
2019-03-19T23:48:14.359Z,7.00
2019-03-19T23:50:46.361Z,7.20
2019-03-19T23:53:21.078Z,6.50
2019-03-19T23:55:54.379Z,6.23
2019-03-19T23:58:27.729Z,6.80
